createdAt,value
2022-10-17T00:00:34.621Z,9.20
2022-10-17T00:03:04.031Z,9.10
2022-10-17T00:05:32.302Z,9.10
2022-10-17T00:08:00.403Z,9.10
2022-10-17T00:10:28.446Z,9.10
2022-10-17T00:12:56.446Z,9.00
2022-10-17T00:15:24.686Z,9.00
2022-10-17T00:17:52.702Z,9.00
2022-10-17T00:20:22.270Z,9.00
2022-10-17T00:22:50.325Z,9.00
2022-10-17T00:25:18.670Z,8.90
2022-10-17T00:27:46.674Z,8.90
2022-10-17T00:30:16.102Z,8.90
2022-10-17T00:32:44.182Z,8.90
2022-10-17T00:35:12.525Z,8.90
2022-10-17T00:37:42.158Z,8.90
2022-10-17T00:40:11.196Z,9.00
2022-10-17T00:42:39.422Z,9.00
2022-10-17T00:45:09.810Z,9.00
2022-10-17T00:47:40.315Z,9.00
2022-10-17T00:50:09.241Z,9.00
2022-10-17T00:52:37.369Z,9.10
2022-10-17T00:55:10.677Z,9.10
2022-10-17T00:57:40.661Z,9.10
2022-10-17T01:00:11.348Z,9.10
2022-10-17T01:02:40.053Z,9.10
2022-10-17T01:05:09.028Z,9.00
2022-10-17T01:07:37.860Z,9.00
2022-10-17T01:10:08.892Z,9.00
2022-10-17T01:12:44.457Z,9.00
2022-10-17T01:15:15.634Z,9.00
2022-10-17T01:17:49.472Z,9.10
2022-10-17T01:20:32.483Z,9.10
2022-10-17T01:23:06.444Z,9.10
2022-10-17T01:25:41.844Z,9.10
2022-10-17T01:28:18.199Z,9.00
2022-10-17T01:31:00.253Z,8.90
2022-10-17T01:33:32.131Z,9.00
2022-10-17T01:36:04.896Z,8.90
2022-10-17T01:38:35.892Z,8.90
2022-10-17T01:41:06.994Z,8.80
2022-10-17T01:43:36.786Z,8.80
2022-10-17T01:46:11.530Z,8.70
2022-10-17T01:48:42.846Z,8.70
2022-10-17T01:51:13.925Z,8.70
2022-10-17T01:53:46.110Z,8.70
2022-10-17T01:56:15.398Z,8.70
2022-10-17T01:58:46.694Z,8.70
2022-10-17T02:01:17.085Z,8.60
2022-10-17T02:03:46.459Z,8.60
2022-10-17T02:06:14.499Z,8.60
2022-10-17T02:08:43.530Z,8.60
2022-10-17T02:11:14.646Z,8.60
2022-10-17T02:13:53.877Z,8.50
2022-10-17T02:16:28.649Z,8.40
2022-10-17T02:19:07.405Z,8.40
2022-10-17T02:21:41.117Z,8.40
2022-10-17T02:24:17.575Z,8.40
2022-10-17T02:26:50.342Z,8.30
2022-10-17T02:29:20.026Z,8.30
2022-10-17T02:31:51.234Z,8.30
2022-10-17T02:34:21.239Z,8.30
2022-10-17T02:36:50.973Z,8.30
2022-10-17T02:39:20.362Z,8.20
2022-10-17T02:41:58.162Z,8.20
2022-10-17T02:44:26.603Z,8.20
2022-10-17T02:46:59.559Z,8.20
2022-10-17T02:49:29.621Z,8.10
2022-10-17T02:52:01.651Z,8.10
2022-10-17T02:54:31.847Z,8.10
2022-10-17T02:57:02.744Z,8.10
2022-10-17T02:59:31.871Z,8.10
2022-10-17T03:02:04.039Z,8.10
2022-10-17T03:04:32.218Z,8.00
2022-10-17T03:07:00.253Z,8.10
2022-10-17T03:09:28.450Z,8.00
2022-10-17T03:11:56.613Z,8.00
2022-10-17T03:14:24.733Z,8.00
2022-10-17T03:16:53.020Z,7.90
2022-10-17T03:19:22.522Z,7.90
2022-10-17T03:21:50.766Z,7.90
2022-10-17T03:24:18.777Z,7.90
2022-10-17T03:29:19.803Z,7.90
2022-10-17T03:31:48.003Z,7.80
2022-10-17T03:34:16.907Z,7.80
2022-10-17T03:36:46.582Z,7.80
2022-10-17T03:39:14.829Z,7.80
2022-10-17T03:41:42.931Z,7.70
2022-10-17T03:44:10.999Z,7.80
2022-10-17T03:46:39.132Z,7.70
2022-10-17T03:49:07.171Z,7.80
2022-10-17T03:51:35.430Z,7.80
2022-10-17T03:54:05.220Z,7.80
2022-10-17T03:56:33.253Z,7.70
2022-10-17T03:59:01.398Z,7.70
2022-10-17T04:01:29.493Z,7.80
2022-10-17T04:03:58.138Z,7.70
2022-10-17T04:06:26.391Z,7.70
2022-10-17T04:08:54.440Z,7.70
2022-10-17T04:11:25.777Z,7.70
2022-10-17T04:13:55.213Z,7.70
2022-10-17T04:16:23.275Z,7.60
2022-10-17T04:18:54.210Z,7.60
2022-10-17T04:21:22.526Z,7.60
2022-10-17T04:23:53.941Z,7.60
2022-10-17T04:26:23.679Z,7.60
2022-10-17T04:28:52.379Z,7.60
2022-10-17T04:31:21.078Z,7.60
2022-10-17T04:33:49.529Z,7.60
2022-10-17T04:36:20.991Z,7.60
2022-10-17T04:38:49.061Z,7.60
2022-10-17T04:41:18.203Z,7.60
2022-10-17T04:43:50.962Z,7.60
2022-10-17T04:46:19.738Z,7.60
2022-10-17T04:48:47.939Z,7.60
2022-10-17T04:51:16.685Z,7.60
2022-10-17T04:53:45.553Z,7.60
2022-10-17T04:56:14.630Z,7.50
2022-10-17T04:58:43.149Z,7.50
2022-10-17T05:01:13.499Z,7.50
2022-10-17T05:03:44.265Z,7.60
2022-10-17T05:06:14.187Z,7.60
2022-10-17T05:08:42.445Z,7.60
2022-10-17T05:11:19.476Z,7.50
2022-10-17T05:13:53.288Z,7.60
2022-10-17T05:16:23.293Z,7.50
2022-10-17T05:18:53.023Z,7.50
2022-10-17T05:21:23.126Z,7.50
2022-10-17T05:23:51.398Z,7.50
2022-10-17T05:26:20.142Z,7.50
2022-10-17T05:28:48.253Z,7.50
2022-10-17T05:31:16.529Z,7.40
2022-10-17T05:33:46.026Z,7.50
2022-10-17T05:36:14.143Z,7.50
2022-10-17T05:38:42.181Z,7.40
2022-10-17T05:41:11.019Z,7.50
2022-10-17T05:43:39.271Z,7.40
2022-10-17T05:46:07.812Z,7.40
2022-10-17T05:48:36.069Z,7.50
2022-10-17T05:51:06.597Z,7.50
2022-10-17T05:53:35.770Z,7.50
2022-10-17T05:56:05.182Z,7.40
2022-10-17T05:58:52.342Z,7.40
2022-10-17T06:01:24.838Z,7.40
2022-10-17T06:03:52.858Z,7.40
2022-10-17T06:06:22.488Z,7.40
2022-10-17T06:08:50.530Z,7.40
2022-10-17T06:11:18.749Z,7.50
2022-10-17T06:13:46.794Z,7.50
2022-10-17T06:16:15.019Z,7.50
2022-10-17T06:18:43.108Z,7.50
2022-10-17T06:21:12.509Z,7.40
2022-10-17T06:23:42.611Z,7.50
2022-10-17T06:26:10.965Z,7.50
2022-10-17T06:28:39.092Z,7.50
2022-10-17T06:31:07.770Z,7.50
2022-10-17T06:33:36.115Z,7.50
2022-10-17T06:36:05.137Z,7.50
2022-10-17T06:38:33.242Z,7.50
2022-10-17T06:41:08.419Z,7.50
2022-10-17T06:43:36.736Z,7.60
2022-10-17T06:46:04.804Z,7.60
2022-10-17T06:48:33.441Z,7.60
2022-10-17T06:51:01.806Z,7.60
2022-10-17T06:53:30.179Z,7.60
2022-10-17T06:56:01.456Z,7.60
2022-10-17T06:58:31.398Z,7.60
2022-10-17T07:01:01.389Z,7.60
2022-10-17T07:03:32.163Z,7.70
2022-10-17T07:06:00.453Z,7.70
2022-10-17T07:08:28.832Z,7.70
2022-10-17T07:10:57.274Z,7.70
2022-10-17T07:13:25.649Z,7.80
2022-10-17T07:16:00.348Z,7.80
2022-10-17T07:18:28.430Z,7.80
2022-10-17T07:20:56.641Z,7.80
2022-10-17T07:23:25.282Z,7.90
2022-10-17T07:25:53.358Z,7.90
2022-10-17T07:28:21.566Z,7.90
2022-10-17T07:30:52.090Z,8.00
2022-10-17T07:33:24.107Z,8.10
2022-10-17T07:35:53.408Z,8.10
2022-10-17T07:38:21.513Z,8.20
2022-10-17T07:40:55.392Z,8.20
2022-10-17T07:43:23.918Z,8.20
2022-10-17T07:45:52.298Z,8.30
2022-10-17T07:48:21.138Z,8.30
2022-10-17T07:50:50.657Z,8.30
2022-10-17T07:53:19.145Z,8.40
2022-10-17T07:55:50.801Z,8.40
2022-10-17T07:58:18.983Z,8.40
2022-10-17T08:00:49.197Z,8.50
2022-10-17T08:03:17.506Z,8.50
2022-10-17T08:05:45.789Z,8.60
2022-10-17T08:08:15.279Z,8.50
2022-10-17T08:10:43.332Z,8.60
2022-10-17T08:13:11.435Z,8.60
2022-10-17T08:15:42.052Z,8.60
2022-10-17T08:18:10.249Z,8.80
2022-10-17T08:20:38.288Z,8.80
2022-10-17T08:23:06.375Z,8.80
2022-10-17T08:25:35.816Z,8.80
2022-10-17T08:28:05.078Z,8.90
2022-10-17T08:30:33.417Z,8.90
2022-10-17T08:33:01.446Z,8.90
2022-10-17T08:35:30.068Z,8.90
2022-10-17T08:38:01.591Z,9.00
2022-10-17T08:40:30.802Z,9.10
2022-10-17T08:43:08.757Z,9.10
2022-10-17T08:45:40.155Z,9.10
2022-10-17T08:48:12.520Z,9.20
2022-10-17T08:50:43.797Z,9.30
2022-10-17T08:53:15.866Z,9.40
2022-10-17T08:55:46.096Z,9.50
2022-10-17T08:58:17.665Z,9.50
2022-10-17T09:00:49.233Z,9.40
2022-10-17T09:03:23.807Z,9.50
2022-10-17T09:05:53.779Z,9.50
2022-10-17T09:08:26.110Z,9.60
2022-10-17T09:10:58.021Z,9.60
2022-10-17T09:13:39.418Z,9.60
2022-10-17T09:16:13.712Z,9.60
2022-10-17T09:18:42.852Z,9.70
2022-10-17T09:21:20.102Z,9.70
2022-10-17T09:23:53.214Z,9.80
2022-10-17T09:26:30.256Z,9.90
2022-10-17T09:29:03.408Z,9.90
2022-10-17T09:31:34.141Z,9.90
2022-10-17T09:34:03.579Z,9.90
2022-10-17T09:36:33.914Z,9.90
2022-10-17T09:39:02.945Z,9.90
2022-10-17T09:41:44.755Z,10.00
2022-10-17T09:44:17.766Z,10.00
2022-10-17T09:46:51.941Z,10.10
2022-10-17T09:49:21.065Z,10.20
2022-10-17T09:51:49.355Z,10.20
2022-10-17T09:54:21.206Z,10.30
2022-10-17T09:56:57.978Z,10.30
2022-10-17T09:59:32.960Z,10.30
2022-10-17T10:02:09.634Z,10.30
2022-10-17T10:05:03.712Z,10.40
2022-10-17T10:07:33.831Z,10.40
2022-10-17T10:10:03.077Z,10.40
2022-10-17T10:12:32.852Z,10.50
2022-10-17T10:15:02.523Z,10.50
2022-10-17T10:17:41.954Z,10.50
2022-10-17T10:20:33.831Z,10.50
2022-10-17T10:23:17.469Z,10.60
2022-10-17T10:25:51.117Z,10.70
2022-10-17T10:28:19.458Z,10.80
2022-10-17T10:30:51.119Z,10.80
2022-10-17T10:33:20.712Z,10.80
2022-10-17T10:35:55.310Z,10.90
2022-10-17T10:38:23.570Z,10.90
2022-10-17T10:40:52.607Z,10.90
2022-10-17T10:43:30.653Z,11.00
2022-10-17T10:46:00.712Z,11.10
2022-10-17T10:48:31.485Z,11.10
2022-10-17T10:51:01.646Z,11.20
2022-10-17T10:53:38.353Z,11.30
2022-10-17T10:56:11.616Z,11.40
2022-10-17T10:58:43.035Z,11.40
2022-10-17T11:01:19.189Z,11.40
2022-10-17T11:03:55.998Z,11.30
2022-10-17T11:06:26.337Z,11.30
2022-10-17T11:09:03.677Z,11.30
2022-10-17T11:11:33.751Z,11.20
2022-10-17T11:14:04.789Z,11.30
2022-10-17T11:16:38.435Z,11.30
2022-10-17T11:19:13.878Z,11.20
2022-10-17T11:21:45.046Z,11.10
2022-10-17T11:24:16.569Z,11.10
2022-10-17T11:26:47.727Z,11.00
2022-10-17T11:29:15.915Z,10.90
2022-10-17T11:31:47.262Z,10.80
2022-10-17T11:34:20.272Z,10.80
2022-10-17T11:36:50.259Z,10.70
2022-10-17T11:39:20.036Z,10.70
2022-10-17T11:41:49.084Z,10.70
2022-10-17T11:44:23.687Z,10.70
2022-10-17T11:47:05.534Z,10.70
2022-10-17T11:49:39.871Z,10.80
2022-10-17T11:52:26.938Z,10.70
2022-10-17T11:55:11.767Z,10.80
2022-10-17T11:57:48.528Z,10.80
2022-10-17T12:00:22.897Z,10.80
2022-10-17T12:02:57.149Z,10.80
2022-10-17T12:05:27.611Z,10.80
2022-10-17T12:08:00.752Z,10.80
2022-10-17T12:10:35.285Z,10.80
2022-10-17T12:13:18.199Z,10.80
2022-10-17T12:15:46.793Z,10.90
2022-10-17T12:18:18.619Z,10.80
2022-10-17T12:20:58.125Z,10.80
2022-10-17T12:23:28.195Z,10.90
2022-10-17T12:26:01.194Z,10.80
2022-10-17T12:28:32.262Z,10.80
2022-10-17T12:31:01.966Z,10.80
2022-10-17T12:33:34.226Z,10.80
2022-10-17T12:36:21.416Z,10.90
2022-10-17T12:38:51.931Z,10.90
2022-10-17T12:41:40.702Z,10.80
2022-10-17T12:44:32.003Z,10.80
2022-10-17T12:47:26.214Z,10.80
2022-10-17T12:49:58.426Z,10.90
2022-10-17T12:52:27.502Z,10.90
2022-10-17T12:55:11.655Z,10.90
2022-10-17T12:57:43.966Z,10.90
2022-10-17T13:00:30.033Z,10.90
2022-10-17T13:03:03.545Z,10.90
2022-10-17T13:05:37.284Z,10.90
2022-10-17T13:08:06.905Z,10.90
2022-10-17T13:10:38.080Z,10.90
2022-10-17T13:13:09.204Z,10.90
2022-10-17T13:15:39.292Z,10.90
2022-10-17T13:18:07.658Z,10.90
2022-10-17T13:20:37.071Z,10.90
2022-10-17T13:23:05.123Z,10.90
2022-10-17T13:25:35.499Z,10.80
2022-10-17T13:28:08.786Z,10.90
2022-10-17T13:30:37.475Z,10.80
2022-10-17T13:33:17.290Z,10.80
2022-10-17T13:36:00.487Z,10.80
2022-10-17T13:38:32.351Z,10.80
2022-10-17T13:41:16.576Z,10.80
2022-10-17T13:43:50.763Z,10.80
2022-10-17T13:46:36.710Z,10.80
2022-10-17T13:49:11.658Z,10.80
2022-10-17T13:51:43.613Z,10.90
2022-10-17T13:54:18.829Z,10.90
2022-10-17T13:56:46.869Z,10.80
2022-10-17T13:59:23.804Z,10.80
2022-10-17T14:01:52.350Z,10.80
2022-10-17T14:04:23.060Z,10.70
2022-10-17T14:06:52.667Z,10.70
2022-10-17T14:09:23.118Z,10.80
2022-10-17T14:11:58.734Z,10.70
2022-10-17T14:14:27.411Z,10.70
2022-10-17T14:16:55.669Z,10.70
2022-10-17T14:19:26.157Z,10.70
2022-10-17T14:21:57.167Z,10.70
2022-10-17T14:24:29.546Z,10.60
2022-10-17T14:26:59.585Z,10.60
2022-10-17T14:29:29.178Z,10.60
2022-10-17T14:32:02.137Z,10.60
2022-10-17T14:34:32.134Z,10.70
2022-10-17T14:37:09.666Z,10.60
2022-10-17T14:39:37.952Z,10.60
2022-10-17T14:42:06.160Z,10.50
2022-10-17T14:44:35.331Z,10.50
2022-10-17T14:47:30.278Z,10.50
2022-10-17T14:49:53.299Z,10.50
2022-10-17T14:52:33.437Z,10.50
2022-10-17T14:55:13.866Z,10.40
2022-10-17T14:57:45.938Z,10.40
2022-10-17T15:00:15.434Z,10.40
2022-10-17T15:02:43.948Z,10.30
2022-10-17T15:05:13.493Z,10.30
2022-10-17T15:07:43.789Z,10.20
2022-10-17T15:10:22.798Z,10.20
2022-10-17T15:12:58.898Z,10.20
2022-10-17T15:15:28.043Z,10.20
2022-10-17T15:17:56.183Z,10.20
2022-10-17T15:20:28.145Z,10.10
2022-10-17T15:22:58.463Z,10.10
2022-10-17T15:25:27.047Z,10.10
2022-10-17T15:27:55.164Z,10.10
2022-10-17T15:30:24.370Z,10.00
2022-10-17T15:32:52.955Z,10.00
2022-10-17T15:35:21.542Z,10.00
2022-10-17T15:37:49.741Z,9.90
2022-10-17T15:40:20.320Z,10.00
2022-10-17T15:42:48.495Z,9.90
2022-10-17T15:45:17.742Z,9.90
2022-10-17T15:47:50.870Z,9.80
2022-10-17T15:50:19.391Z,9.80
2022-10-17T15:52:49.344Z,9.70
2022-10-17T15:55:17.829Z,9.60
2022-10-17T15:57:48.289Z,9.60
2022-10-17T16:00:17.351Z,9.60
2022-10-17T16:02:45.741Z,9.70
2022-10-17T16:05:17.174Z,9.70
2022-10-17T16:07:48.339Z,9.80
2022-10-17T16:10:17.138Z,9.80
2022-10-17T16:12:45.711Z,9.80
2022-10-17T16:15:17.985Z,9.80
2022-10-17T16:17:46.126Z,9.80
2022-10-17T16:20:14.774Z,9.80
2022-10-17T16:22:43.902Z,9.80
2022-10-17T16:25:19.522Z,9.80
2022-10-17T16:27:48.139Z,9.80
2022-10-17T16:30:18.300Z,9.90
2022-10-17T16:32:46.587Z,9.90
2022-10-17T16:35:17.635Z,9.80
2022-10-17T16:37:45.903Z,9.90
2022-10-17T16:40:13.983Z,9.90
2022-10-17T16:42:42.047Z,9.90
2022-10-17T16:45:11.559Z,9.90
2022-10-17T16:47:41.089Z,9.90
2022-10-17T16:50:09.503Z,9.90
2022-10-17T16:52:37.747Z,9.90
2022-10-17T16:55:06.183Z,9.90
2022-10-17T16:57:34.468Z,9.90
2022-10-17T17:00:02.799Z,9.90
2022-10-17T17:02:31.061Z,9.90
2022-10-17T17:05:01.049Z,9.90
2022-10-17T17:07:29.898Z,9.80
2022-10-17T17:09:58.297Z,9.80
2022-10-17T17:12:29.341Z,9.90
2022-10-17T17:14:57.553Z,9.80
2022-10-17T17:17:44.257Z,9.80
2022-10-17T17:20:14.112Z,9.70
2022-10-17T17:22:43.444Z,9.70
2022-10-17T17:25:11.593Z,9.80
2022-10-17T17:27:39.621Z,9.80
2022-10-17T17:30:08.876Z,9.80
2022-10-17T17:32:37.045Z,9.80
2022-10-17T17:35:05.210Z,9.80
2022-10-17T17:37:34.837Z,9.80
2022-10-17T17:40:02.928Z,9.80
2022-10-17T17:42:30.934Z,9.80
2022-10-17T17:44:59.068Z,9.90
2022-10-17T17:47:29.722Z,9.80
2022-10-17T17:49:58.109Z,9.90
2022-10-17T17:52:26.142Z,9.90
2022-10-17T17:55:04.409Z,9.80
2022-10-17T17:57:32.826Z,9.90
2022-10-17T18:00:00.885Z,9.90
2022-10-17T18:02:29.241Z,9.90
2022-10-17T18:04:57.543Z,9.90
2022-10-17T18:07:28.002Z,9.90
2022-10-17T18:09:57.723Z,9.90
2022-10-17T18:12:25.858Z,9.90
2022-10-17T18:14:53.895Z,9.90
2022-10-17T18:17:22.230Z,9.90
2022-10-17T18:19:50.555Z,9.90
2022-10-17T18:22:18.678Z,9.90
2022-10-17T18:24:46.988Z,9.90
2022-10-17T18:27:16.440Z,9.90
2022-10-17T18:29:46.067Z,9.80
2022-10-17T18:32:14.450Z,9.80
2022-10-17T18:34:42.550Z,9.80
2022-10-17T18:37:10.598Z,9.70
2022-10-17T18:39:38.975Z,9.70
2022-10-17T18:42:07.388Z,9.70
2022-10-17T18:44:39.309Z,9.70
2022-10-17T18:47:07.557Z,9.70
2022-10-17T18:49:35.823Z,9.70
2022-10-17T18:52:04.525Z,9.70
2022-10-17T18:54:33.678Z,9.70
2022-10-17T18:57:01.984Z,9.60
2022-10-17T18:59:30.015Z,9.60
2022-10-17T19:01:59.585Z,9.60
2022-10-17T19:04:29.421Z,9.60
2022-10-17T19:06:57.578Z,9.60
2022-10-17T19:09:25.841Z,9.60
2022-10-17T19:11:53.937Z,9.60
2022-10-17T19:14:22.044Z,9.60
2022-10-17T19:16:51.129Z,9.60
2022-10-17T19:19:21.848Z,9.50
2022-10-17T19:21:50.394Z,9.50
2022-10-17T19:24:19.831Z,9.50
2022-10-17T19:26:50.342Z,9.50
2022-10-17T19:29:19.088Z,9.50
2022-10-17T19:31:49.614Z,9.50
2022-10-17T19:34:18.276Z,9.50
2022-10-17T19:36:48.143Z,9.50
2022-10-17T19:39:18.198Z,9.50
2022-10-17T19:41:47.468Z,9.50
2022-10-17T19:44:16.055Z,9.40
2022-10-17T19:46:49.329Z,9.40
2022-10-17T19:49:18.088Z,9.40
2022-10-17T19:51:47.758Z,9.40
2022-10-17T19:54:20.370Z,9.50
2022-10-17T19:56:51.419Z,9.40
2022-10-17T19:59:19.762Z,9.40
2022-10-17T20:01:50.512Z,9.40
2022-10-17T20:04:18.622Z,9.30
2022-10-17T20:06:50.489Z,9.40
2022-10-17T20:09:18.533Z,9.30
2022-10-17T20:11:49.166Z,9.40
2022-10-17T20:14:17.445Z,9.30
2022-10-17T20:16:50.134Z,9.30
2022-10-17T20:19:18.391Z,9.40
2022-10-17T20:21:46.546Z,9.30
2022-10-17T20:24:17.181Z,9.30
2022-10-17T20:26:45.674Z,9.30
2022-10-17T20:29:15.674Z,9.30
2022-10-17T20:31:44.690Z,9.20
2022-10-17T20:34:14.014Z,9.30
2022-10-17T20:36:42.155Z,9.20
2022-10-17T20:39:11.590Z,9.20
2022-10-17T20:41:41.385Z,9.20
2022-10-17T20:44:09.653Z,9.20
2022-10-17T20:46:41.708Z,9.20
2022-10-17T20:49:15.274Z,9.20
2022-10-17T20:51:43.335Z,9.20
2022-10-17T20:54:13.799Z,9.20
2022-10-17T20:56:43.494Z,9.20
2022-10-17T20:59:14.472Z,9.20
2022-10-17T21:01:42.922Z,9.10
2022-10-17T21:04:40.641Z,9.10
2022-10-17T21:06:59.485Z,9.10
2022-10-17T21:09:27.830Z,9.00
2022-10-17T21:11:57.325Z,9.00
2022-10-17T21:14:26.603Z,9.00
2022-10-17T21:16:55.751Z,8.90
2022-10-17T21:19:23.934Z,8.90
2022-10-17T21:21:52.031Z,8.90
2022-10-17T21:24:20.946Z,8.90
2022-10-17T21:26:50.229Z,8.90
2022-10-17T21:29:19.734Z,8.80
2022-10-17T21:31:47.773Z,8.80
2022-10-17T21:34:17.641Z,8.80
2022-10-17T21:36:46.327Z,8.70
2022-10-17T21:39:14.819Z,8.70
2022-10-17T21:41:43.463Z,8.70
2022-10-17T21:44:13.136Z,8.70
2022-10-17T21:46:42.784Z,8.60
2022-10-17T21:49:12.289Z,8.60
2022-10-17T21:51:40.585Z,8.60
2022-10-17T21:54:08.924Z,8.50
2022-10-17T21:56:36.971Z,8.50
2022-10-17T21:59:05.537Z,8.50
2022-10-17T22:01:34.383Z,8.50
2022-10-17T22:04:04.434Z,8.50
2022-10-17T22:06:41.131Z,8.50
2022-10-17T22:09:10.242Z,8.50
2022-10-17T22:11:38.496Z,8.50
2022-10-17T22:14:07.795Z,8.50
2022-10-17T22:16:36.331Z,8.40
2022-10-17T22:19:06.919Z,8.40
2022-10-17T22:21:36.190Z,8.40
2022-10-17T22:24:08.858Z,8.40
2022-10-17T22:26:38.064Z,8.30
2022-10-17T22:29:06.739Z,8.40
2022-10-17T22:31:35.214Z,8.30
2022-10-17T22:34:05.101Z,8.30
2022-10-17T22:36:35.554Z,8.30
2022-10-17T22:39:04.172Z,8.40
2022-10-17T22:41:32.896Z,8.30
2022-10-17T22:44:00.916Z,8.20
2022-10-17T22:46:31.962Z,8.30
2022-10-17T22:49:00.157Z,8.30
2022-10-17T22:51:28.246Z,8.30
2022-10-17T22:53:57.896Z,8.30
2022-10-17T22:56:25.998Z,8.30
2022-10-17T22:58:54.291Z,8.30
2022-10-17T23:01:24.313Z,8.30
2022-10-17T23:03:53.000Z,8.30
2022-10-17T23:06:21.581Z,8.30
2022-10-17T23:08:49.618Z,8.30
2022-10-17T23:11:20.905Z,8.30
2022-10-17T23:13:49.391Z,8.30
2022-10-17T23:16:17.467Z,8.30
2022-10-17T23:18:45.722Z,8.20
2022-10-17T23:21:13.885Z,8.20
2022-10-17T23:23:42.161Z,8.30
2022-10-17T23:26:11.621Z,8.20
2022-10-17T23:28:42.015Z,8.20
2022-10-17T23:31:11.005Z,8.20
2022-10-17T23:33:41.388Z,8.20
2022-10-17T23:36:10.723Z,8.20
2022-10-17T23:38:38.888Z,8.20
2022-10-17T23:41:07.128Z,8.10
2022-10-17T23:43:35.432Z,8.10
2022-10-17T23:46:05.585Z,8.20
2022-10-17T23:48:38.285Z,8.10
2022-10-17T23:51:07.083Z,8.10
2022-10-17T23:53:35.363Z,8.10
2022-10-17T23:56:03.407Z,8.00
2022-10-17T23:58:31.768Z,8.10
